Address 0xae4032f2572f277e1245b2b903cafde750519c5b 1

 
 
Txn Hash
Block
From
To
Value [Txn Fee]
0x5e131066049bd5d487f6ec74efa0d3c4b850ba9f877a5c9be60d45290922714a95448052021-07-28 9:51:4622 hrs 20 mins ago0xae4032f2572f277e1245b2b903cafde750519c5bOUT 0xca6a87cd9050bd7a68d4b61ede9d1105a3bb1f6f0 BNB0.000497535
0xb8572294d49319324b61b7ab6e1ee51bcdca1cb69c229d28cd704f753b62b0ba95277582021-07-27 18:29:591 day 13 hrs ago0xae4032f2572f277e1245b2b903cafde750519c5bOUT 0x9a2ed26c9b3a019b5d42aba9750f7f5425bd15180 BNB0.00022215
0xcd2d782cd90ca5acb7369e85a5e1670e2b17d2c3eaae9863b92c2f932e88707395276812021-07-27 18:24:351 day 13 hrs ago0xae4032f2572f277e1245b2b903cafde750519c5bOUT PancakeSwap: Router v20.033 BNB0.00128633
0xa19a6d2b8b995c9ecef51f7c4701c53e50e50079abaa71d2dd997bdbaed71f0f95263712021-07-27 17:02:581 day 15 hrs ago0xae4032f2572f277e1245b2b903cafde750519c5bOUT PancakeSwap: Router v20.23 BNB0.000156385
0x077435b65f2a567a3508b2164e9f081e90baddf5faf03088343ec8860f36649295248642021-07-27 15:36:201 day 16 hrs ago0xae4032f2572f277e1245b2b903cafde750519c5bOUT 0x0c84e6043b7b1f9b71bca338b49dbc8997ee162b0 BNB0.00022215
0x37bbfe2e77b2880ba2dadd73fe23e625df2f848cb9357273eee8d42060de1b2795214382021-07-27 12:15:111 day 19 hrs ago0xae4032f2572f277e1245b2b903cafde750519c5bOUT PancakeSwap: Router v20.02 BNB0.00322467
0xe3b657b6da7c54af63282ece7c84942edf090b3c19454f525c10f8a1c3b05daf95173542021-07-27 8:39:441 day 23 hrs ago0x905b84fa09ae128b79f3aa820731009c19c308fa IN 0xae4032f2572f277e1245b2b903cafde750519c5b0.7 BNB0.000105
0x21a1af6dabb5492e4aff57cace86ff43fa62fbe7286951d8eb9af176fee6ee0e95157072021-07-27 7:09:352 days 1 hr ago0xae4032f2572f277e1245b2b903cafde750519c5bOUT 0xbf00dea8b6f8c840bc0e5bca38def7051009c3c80 BNB0.00022286
0xaef1ae08864f0bd129b1f3049f9b0730a33beea85fae27463dc497f5942e2c6a95156462021-07-27 7:06:322 days 1 hr ago0xae4032f2572f277e1245b2b903cafde750519c5bOUT PancakeSwap: Router v20.083777916549353 BNB0.00274483
0xa59a641de6ef1797df74a1e941b7dfa7264d8a697de9d512017201690be6994495152412021-07-27 6:46:142 days 1 hr ago0xae4032f2572f277e1245b2b903cafde750519c5bOUT PancakeSwap: Router v20 BNB0.00055265
0x807c9c8d68e8df3828f9df4f1fff34aba41d370d9cc02f5ddeb711957858428a95152322021-07-27 6:45:472 days 1 hr ago0xae4032f2572f277e1245b2b903cafde750519c5bOUT Binance: BTCB Token0 BNB0.00022203
0xba6cf85093303f02b1dde545834a37169ff734e5dbf5ac35352bc248a89a5ff795046192021-07-26 21:51:142 days 10 hrs ago0xae4032f2572f277e1245b2b903cafde750519c5bOUT PancakeSwap: Router v20.037972308295126 BNB0.003142065
0x7ff076311ed6e564ec25a468b44887d63a5042f08d06ccfa213684c86aad8bf495043182021-07-26 21:35:572 days 10 hrs ago0xae4032f2572f277e1245b2b903cafde750519c5bOUT PancakeSwap: Router v20 BNB0.00103074
0xbc40e495841c86965430a39601178d60cf4ec4d2e27effb7e43dcf57bd9b6b9895043022021-07-26 21:35:092 days 10 hrs ago0xae4032f2572f277e1245b2b903cafde750519c5bOUT 0x3891000f1755dc3e8ad023ec29cb47bb5e9b1d0a0 BNB0.00022274
0xa788999e07f0a7ed26b7549a5e333ad8e2d328ef6a702720709661f1164804e695021822021-07-26 19:48:122 days 12 hrs ago0xae4032f2572f277e1245b2b903cafde750519c5bOUT 0xca6a87cd9050bd7a68d4b61ede9d1105a3bb1f6f0 BNB0.000222635
0x9dc9518bc8a13fe8fa12dad5c1814748e43efd582f3afd10836365b9acd94dc495021642021-07-26 19:47:082 days 12 hrs ago0xae4032f2572f277e1245b2b903cafde750519c5bOUT PancakeSwap: Router v20.067117319275546 BNB0.001083095
0x5ef9eb49024c7483b0df66c30e3ab2427fa1ef462b7236846ecab0a5a125c94894906802021-07-26 9:48:212 days 22 hrs ago0xae4032f2572f277e1245b2b903cafde750519c5bOUT PancakeSwap: Router v20 BNB0.00600416
0xef2dd84ac81c2af7cb15109d50551a06fa50b6ca84464a13cccef01c35a730a994861682021-07-26 5:56:123 days 2 hrs ago0xae4032f2572f277e1245b2b903cafde750519c5bOUT 0x37a151cf632f75677dcdee28f0284b981e2453af0 BNB0.00022215
0xbec513c8751ecf832b34836d79704e138d207cdc59c5125f0ae4b9b70734779c94861612021-07-26 5:55:473 days 2 hrs ago0xae4032f2572f277e1245b2b903cafde750519c5bOUT PancakeSwap: Router v20.07 BNB0.00315933
0xf6a4a9b43f8bd27b70d309fbc358bb6a228dda22a8b478e767797153e28e4c2f94737522021-07-25 19:32:573 days 12 hrs ago0xae4032f2572f277e1245b2b903cafde750519c5bOUT PancakeSwap: Router v20.054644642896338 BNB0.000156685
0x5e2ce25070cd00f6bcfe4a6659885428449e0eb5b0b68ae965741f45ef5bac9494708642021-07-25 17:07:343 days 15 hrs ago0xae4032f2572f277e1245b2b903cafde750519c5bOUT PancakeSwap: Router v20 BNB0.00061301
0xca4fc19750ce97bc0a16a5d6594b57af59e3df77911aa5eb09c352be3e4ed59894708402021-07-25 17:06:223 days 15 hrs ago0xae4032f2572f277e1245b2b903cafde750519c5bOUT Ethereum: ETH Token0 BNB0.00022203
0x2752f5015fc016f3a7add76e7de4c7de3888b7532296ebea49b10c494204480f94708202021-07-25 17:05:223 days 15 hrs ago0xae4032f2572f277e1245b2b903cafde750519c5bOUT PancakeSwap: Router v20 BNB0.0027808
0x3ccf4cf3da38ef357ff3a794e6bd304fb6b1b9f166e4ccda2da193c8eed972d794708132021-07-25 17:05:013 days 15 hrs ago0xae4032f2572f277e1245b2b903cafde750519c5bOUT 0x0fad2ee16b15b37074b1e419d997198e452796850 BNB0.000223065
0xee2b426372655fe449ae8d71a899b33a266265fee363f2b00bac4d28ef4ba04b94707722021-07-25 17:02:583 days 15 hrs ago0xae4032f2572f277e1245b2b903cafde750519c5bOUT PancakeSwap: Router v20 BNB0.00110402
[ Download CSV Export 
Latest 9 internal transactions
Parent Txn Hash Block From To Value
0xa59a641de6ef1797df74a1e941b7dfa7264d8a697de9d512017201690be6994495152412021-07-27 6:46:142 days 1 hr ago PancakeSwap: Router v20xae4032f2572f277e1245b2b903cafde750519c5b0.087694661549353181 BNB
0x7ff076311ed6e564ec25a468b44887d63a5042f08d06ccfa213684c86aad8bf495043182021-07-26 21:35:572 days 10 hrs ago PancakeSwap: Router v20xae4032f2572f277e1245b2b903cafde750519c5b0.040531518295126087 BNB
0x5ef9eb49024c7483b0df66c30e3ab2427fa1ef462b7236846ecab0a5a125c94894906802021-07-26 9:48:212 days 22 hrs ago PancakeSwap: Router v20xae4032f2572f277e1245b2b903cafde750519c5b0.001195179985912571 BNB
0x5e2ce25070cd00f6bcfe4a6659885428449e0eb5b0b68ae965741f45ef5bac9494708642021-07-25 17:07:343 days 15 hrs ago PancakeSwap: Router v20xae4032f2572f277e1245b2b903cafde750519c5b0.068912717973861261 BNB
0x2752f5015fc016f3a7add76e7de4c7de3888b7532296ebea49b10c494204480f94708202021-07-25 17:05:223 days 15 hrs ago PancakeSwap: Router v20xae4032f2572f277e1245b2b903cafde750519c5b0.000346562766305645 BNB
0xee2b426372655fe449ae8d71a899b33a266265fee363f2b00bac4d28ef4ba04b94707722021-07-25 17:02:583 days 15 hrs ago PancakeSwap: Router v20xae4032f2572f277e1245b2b903cafde750519c5b0.007364934049466928 BNB
0xa16c9a6184c2c045d147aad1f5d276593967a6dd1cef8094bbdb9f98d07ad6c294131682021-07-23 16:35:085 days 15 hrs ago PancakeSwap: Router v20xae4032f2572f277e1245b2b903cafde750519c5b0.217539925202937921 BNB
0xa131648fc39008e0f856082e31fa245c81ff82dc7af4d054430367160c797d7c94126062021-07-23 16:06:525 days 16 hrs ago PancakeSwap: Router v20xae4032f2572f277e1245b2b903cafde750519c5b0.429508809699844848 BNB
0x434577712a85682962479b0959bfef3b6cd614ccc67114d7d3950935b6b0283f82873052021-06-14 10:22:0444 days 21 hrs ago PancakeSwap: Router v20xae4032f2572f277e1245b2b903cafde750519c5b0.143430012114790273 BNB
[ Download CSV Export 
Loading

Contract Name:
0 BNB

Compiler Version
0

Optimization Enabled:
0 BNB

Other Settings:
-NA-
Block Transaction Gas Used Reward
Age Block Fee Address BC Fee Address Voting Power Jailed Incoming
Block Uncle Number Difficulty Gas Used Reward
Loading
Loading
Make sure to use the "Vote Down" button for any spammy posts, and the "Vote Up" for interesting conversations.